sensor_id;sensor_type;location;lat;lon;timestamp;pressure;altitude;pressure_sealevel;temperature;humidity
50484;BME280;36409;52.168;20.878;2022-11-13T00:02:19;102109.88;;;8.16;83.25
50484;BME280;36409;52.168;20.878;2022-11-13T00:05:08;102102.05;;;8.15;82.64
50484;BME280;36409;52.168;20.878;2022-11-13T00:07:58;102108.95;;;8.14;83.11
50484;BME280;36409;52.168;20.878;2022-11-13T00:10:48;102102.05;;;8.15;82.45
50484;BME280;36409;52.168;20.878;2022-11-13T00:13:35;102096.78;;;8.13;83.15
50484;BME280;36409;52.168;20.878;2022-11-13T00:16:23;102098.52;;;8.13;82.97
50484;BME280;36409;52.168;20.878;2022-11-13T00:19:11;102102.83;;;8.12;83.35
50484;BME280;36409;52.168;20.878;2022-11-13T00:22:01;102107.19;;;8.13;82.87
50484;BME280;36409;52.168;20.878;2022-11-13T00:24:51;102100.23;;;8.12;83.07
50484;BME280;36409;52.168;20.878;2022-11-13T00:27:41;102093.27;;;8.11;82.54
50484;BME280;36409;52.168;20.878;2022-11-13T00:30:29;102092.40;;;8.11;83.14
50484;BME280;36409;52.168;20.878;2022-11-13T00:33:16;102098.47;;;8.11;83.05
50484;BME280;36409;52.168;20.878;2022-11-13T00:36:25;102098.44;;;8.10;83.03
50484;BME280;36409;52.168;20.878;2022-11-13T00:39:17;102101.05;;;8.10;83.12
50484;BME280;36409;52.168;20.878;2022-11-13T00:42:05;102105.38;;;8.09;82.96
50484;BME280;36409;52.168;20.878;2022-11-13T00:44:52;102101.94;;;8.10;83.20
50484;BME280;36409;52.168;20.878;2022-11-13T00:47:45;102101.94;;;8.10;82.93
50484;BME280;36409;52.168;20.878;2022-11-13T00:50:35;102098.47;;;8.11;83.22
50484;BME280;36409;52.168;20.878;2022-11-13T00:53:22;102091.58;;;8.13;83.28
50484;BME280;36409;52.168;20.878;2022-11-13T00:56:16;102091.64;;;8.15;83.30
50484;BME280;36409;52.168;20.878;2022-11-13T00:59:05;102084.70;;;8.15;83.35
50484;BME280;36409;52.168;20.878;2022-11-13T01:01:53;102085.59;;;8.16;83.58
50484;BME280;36409;52.168;20.878;2022-11-13T01:04:41;102079.50;;;8.15;83.01
50484;BME280;36409;52.168;20.878;2022-11-13T01:07:30;102075.19;;;8.16;82.69
50484;BME280;36409;52.168;20.878;2022-11-13T01:10:18;102073.44;;;8.15;83.42
50484;BME280;36409;52.168;20.878;2022-11-13T01:13:06;102072.53;;;8.14;83.12
50484;BME280;36409;52.168;20.878;2022-11-13T01:15:59;102070.83;;;8.15;83.29
50484;BME280;36409;52.168;20.878;2022-11-13T01:18:52;102072.53;;;8.14;83.46
50484;BME280;36409;52.168;20.878;2022-11-13T01:21:40;102065.58;;;8.13;83.24
50484;BME280;36409;52.168;20.878;2022-11-13T01:24:28;102071.67;;;8.14;83.58
50484;BME280;36409;52.168;20.878;2022-11-13T01:27:16;102072.53;;;8.14;83.38
50484;BME280;36409;52.168;20.878;2022-11-13T01:30:09;102069.07;;;8.14;83.42
50484;BME280;36409;52.168;20.878;2022-11-13T01:32:57;102066.47;;;8.14;83.26
50484;BME280;36409;52.168;20.878;2022-11-13T01:35:45;102069.07;;;8.14;83.12
50484;BME280;36409;52.168;20.878;2022-11-13T01:38:35;102063.81;;;8.12;83.50
50484;BME280;36409;52.168;20.878;2022-11-13T01:41:25;102056.91;;;8.13;82.96
50484;BME280;36409;52.168;20.878;2022-11-13T01:44:15;102054.30;;;8.13;83.45
50484;BME280;36409;52.168;20.878;2022-11-13T01:47:07;102061.27;;;8.14;83.24
50484;BME280;36409;52.168;20.878;2022-11-13T01:49:57;102055.17;;;8.13;83.61
50484;BME280;36409;52.168;20.878;2022-11-13T01:52:49;102062.11;;;8.13;83.21
50484;BME280;36409;52.168;20.878;2022-11-13T01:55:37;102059.53;;;8.14;83.57
50484;BME280;36409;52.168;20.878;2022-11-13T01:58:25;102063.89;;;8.15;83.55
50484;BME280;36409;52.168;20.878;2022-11-13T02:01:14;102058.69;;;8.15;83.21
50484;BME280;36409;52.168;20.878;2022-11-13T02:04:04;102052.62;;;8.15;83.39
50484;BME280;36409;52.168;20.878;2022-11-13T02:06:54;102052.65;;;8.16;83.73
50484;BME280;36409;52.168;20.878;2022-11-13T02:09:44;102052.65;;;8.16;83.59
50484;BME280;36409;52.168;20.878;2022-11-13T02:12:35;102043.98;;;8.16;83.57
50484;BME280;36409;52.168;20.878;2022-11-13T02:15:28;102040.48;;;8.15;83.90
50484;BME280;36409;52.168;20.878;2022-11-13T02:18:18;102047.42;;;8.15;83.66
50484;BME280;36409;52.168;20.878;2022-11-13T02:21:17;102044.77;;;8.13;83.52
50484;BME280;36409;52.168;20.878;2022-11-13T02:24:18;102048.28;;;8.15;83.53
50484;BME280;36409;52.168;20.878;2022-11-13T02:27:12;102041.33;;;8.14;83.68
50484;BME280;36409;52.168;20.878;2022-11-13T02:30:16;102041.33;;;8.14;83.99
50484;BME280;36409;52.168;20.878;2022-11-13T02:33:22;102043.06;;;8.14;83.06
50484;BME280;36409;52.168;20.878;2022-11-13T02:36:22;102037.80;;;8.12;83.81
50484;BME280;36409;52.168;20.878;2022-11-13T02:39:12;102046.50;;;8.13;83.23
50484;BME280;36409;52.168;20.878;2022-11-13T02:42:00;102045.61;;;8.12;83.55
50484;BME280;36409;52.168;20.878;2022-11-13T02:44:50;102043.00;;;8.12;83.20
50484;BME280;36409;52.168;20.878;2022-11-13T02:47:37;102035.18;;;8.11;83.91
50484;BME280;36409;52.168;20.878;2022-11-13T02:50:25;102038.64;;;8.11;83.54
50484;BME280;36409;52.168;20.878;2022-11-13T02:53:17;102043.83;;;8.10;84.00
50484;BME280;36409;52.168;20.878;2022-11-13T02:56:06;102029.06;;;8.09;83.71
50484;BME280;36409;52.168;20.878;2022-11-13T02:58:56;102026.45;;;8.09;83.84
50484;BME280;36409;52.168;20.878;2022-11-13T03:01:43;102036.00;;;8.08;83.41
50484;BME280;36409;52.168;20.878;2022-11-13T03:04:34;102038.59;;;8.08;83.69
50484;BME280;36409;52.168;20.878;2022-11-13T03:07:42;102042.06;;;8.09;83.52
50484;BME280;36409;52.168;20.878;2022-11-13T03:10:30;102047.27;;;8.09;83.50
50484;BME280;36409;52.168;20.878;2022-11-13T03:13:18;102045.50;;;8.08;84.09
50484;BME280;36409;52.168;20.878;2022-11-13T03:16:10;102040.36;;;8.09;84.16
50484;BME280;36409;52.168;20.878;2022-11-13T03:18:58;102040.36;;;8.09;83.85
50484;BME280;36409;52.168;20.878;2022-11-13T03:21:48;102039.46;;;8.09;84.11
50484;BME280;36409;52.168;20.878;2022-11-13T03:24:36;102043.83;;;8.10;83.55
50484;BME280;36409;52.168;20.878;2022-11-13T03:27:24;102045.56;;;8.09;83.77
50484;BME280;36409;52.168;20.878;2022-11-13T03:30:12;102041.20;;;8.08;83.76
50484;BME280;36409;52.168;20.878;2022-11-13T03:33:01;102041.20;;;8.08;83.44
50484;BME280;36409;52.168;20.878;2022-11-13T03:35:49;102044.66;;;8.09;84.17
50484;BME280;36409;52.168;20.878;2022-11-13T03:38:39;102048.95;;;8.07;83.40
50484;BME280;36409;52.168;20.878;2022-11-13T03:41:26;102046.32;;;8.05;84.03
50484;BME280;36409;52.168;20.878;2022-11-13T03:44:16;102054.13;;;8.05;83.85
50484;BME280;36409;52.168;20.878;2022-11-13T03:47:04;102052.36;;;8.04;83.90
50484;BME280;36409;52.168;20.878;2022-11-13T03:49:51;102043.70;;;8.03;84.25
50484;BME280;36409;52.168;20.878;2022-11-13T03:52:39;102051.52;;;8.05;83.90
50484;BME280;36409;52.168;20.878;2022-11-13T03:55:27;102047.19;;;8.06;83.60
50484;BME280;36409;52.168;20.878;2022-11-13T03:58:15;102043.72;;;8.05;84.15
50484;BME280;36409;52.168;20.878;2022-11-13T04:01:03;102049.77;;;8.04;83.96
50484;BME280;36409;52.168;20.878;2022-11-13T04:03:50;102047.16;;;8.04;83.62
50484;BME280;36409;52.168;20.878;2022-11-13T04:06:38;102039.36;;;8.04;84.41
50484;BME280;36409;52.168;20.878;2022-11-13T04:09:25;102057.59;;;8.06;83.60
50484;BME280;36409;52.168;20.878;2022-11-13T04:12:14;102051.52;;;8.05;84.04
50484;BME280;36409;52.168;20.878;2022-11-13T04:15:09;102043.72;;;8.05;84.06
50484;BME280;36409;52.168;20.878;2022-11-13T04:18:00;102044.56;;;8.04;83.68
50484;BME280;36409;52.168;20.878;2022-11-13T04:20:48;102050.61;;;8.03;84.28
50484;BME280;36409;52.168;20.878;2022-11-13T04:23:37;102051.44;;;8.02;84.05
50484;BME280;36409;52.168;20.878;2022-11-13T04:26:25;102049.68;;;8.01;84.03
50484;BME280;36409;52.168;20.878;2022-11-13T04:29:13;102047.06;;;7.99;83.47
50484;BME280;36409;52.168;20.878;2022-11-13T04:32:05;102042.70;;;7.98;84.09
50484;BME280;36409;52.168;20.878;2022-11-13T04:34:52;102048.80;;;7.99;83.80
50484;BME280;36409;52.168;20.878;2022-11-13T04:37:40;102045.27;;;7.97;83.77
50484;BME280;36409;52.168;20.878;2022-11-13T04:40:30;102045.27;;;7.97;83.73
50484;BME280;36409;52.168;20.878;2022-11-13T04:43:20;102053.08;;;7.97;83.65
50484;BME280;36409;52.168;20.878;2022-11-13T04:46:24;102050.50;;;7.98;83.91
50484;BME280;36409;52.168;20.878;2022-11-13T04:49:14;102049.64;;;7.98;83.65
50484;BME280;36409;52.168;20.878;2022-11-13T04:52:02;102051.34;;;7.97;84.41
50484;BME280;36409;52.168;20.878;2022-11-13T04:54:52;102043.53;;;7.97;84.11
50484;BME280;36409;52.168;20.878;2022-11-13T04:57:40;102045.30;;;7.98;84.11
50484;BME280;36409;52.168;20.878;2022-11-13T05:00:28;102049.64;;;7.98;84.03
50484;BME280;36409;52.168;20.878;2022-11-13T05:03:17;102047.03;;;7.98;84.14
50484;BME280;36409;52.168;20.878;2022-11-13T05:06:06;102062.64;;;7.98;83.93
50484;BME280;36409;52.168;20.878;2022-11-13T05:08:54;102059.14;;;7.97;84.00
50484;BME280;36409;52.168;20.878;2022-11-13T05:11:42;102067.84;;;7.98;84.32
50484;BME280;36409;52.168;20.878;2022-11-13T05:14:30;102061.73;;;7.97;83.94
50484;BME280;36409;52.168;20.878;2022-11-13T05:17:17;102069.54;;;7.97;84.15
50484;BME280;36409;52.168;20.878;2022-11-13T05:20:07;102059.20;;;7.99;84.53
50484;BME280;36409;52.168;20.878;2022-11-13T05:22:55;102067.00;;;7.99;84.48
50484;BME280;36409;52.168;20.878;2022-11-13T05:25:44;102063.50;;;7.98;83.68
50484;BME280;36409;52.168;20.878;2022-11-13T05:28:35;102075.66;;;7.99;83.79
50484;BME280;36409;52.168;20.878;2022-11-13T05:31:26;102067.86;;;7.99;84.30
50484;BME280;36409;52.168;20.878;2022-11-13T05:34:14;102072.22;;;8.00;83.88
50484;BME280;36409;52.168;20.878;2022-11-13T05:37:04;102073.09;;;8.01;83.83
50484;BME280;36409;52.168;20.878;2022-11-13T05:39:52;102077.42;;;8.00;84.47
50484;BME280;36409;52.168;20.878;2022-11-13T05:42:40;102083.47;;;7.99;84.41
50484;BME280;36409;52.168;20.878;2022-11-13T05:45:30;102084.30;;;7.98;84.11
50484;BME280;36409;52.168;20.878;2022-11-13T05:48:17;102086.91;;;7.98;84.28
50484;BME280;36409;52.168;20.878;2022-11-13T05:51:08;102080.84;;;7.98;84.30
50484;BME280;36409;52.168;20.878;2022-11-13T05:53:58;102086.04;;;7.98;84.35
50484;BME280;36409;52.168;20.878;2022-11-13T05:56:48;102084.30;;;7.98;84.42
50484;BME280;36409;52.168;20.878;2022-11-13T05:59:41;102080.84;;;7.98;84.24
50484;BME280;36409;52.168;20.878;2022-11-13T06:02:28;102085.14;;;7.97;84.05
50484;BME280;36409;52.168;20.878;2022-11-13T06:05:16;102086.91;;;7.98;84.33
50484;BME280;36409;52.168;20.878;2022-11-13T06:08:06;102089.50;;;7.98;84.63
50484;BME280;36409;52.168;20.878;2022-11-13T06:10:58;102086.06;;;7.99;84.27
50484;BME280;36409;52.168;20.878;2022-11-13T06:13:48;102082.60;;;7.99;84.11
50484;BME280;36409;52.168;20.878;2022-11-13T06:16:38;102087.83;;;8.00;84.47
50484;BME280;36409;52.168;20.878;2022-11-13T06:19:27;102086.09;;;8.01;84.44
50484;BME280;36409;52.168;20.878;2022-11-13T06:22:15;102087.91;;;8.03;84.26
50484;BME280;36409;52.168;20.878;2022-11-13T06:25:05;102094.87;;;8.04;84.30
50484;BME280;36409;52.168;20.878;2022-11-13T06:27:55;102093.16;;;8.07;84.55
50484;BME280;36409;52.168;20.878;2022-11-13T06:30:43;102094.05;;;8.07;84.36
50484;BME280;36409;52.168;20.878;2022-11-13T06:33:34;102094.98;;;8.09;84.34
50484;BME280;36409;52.168;20.878;2022-11-13T06:36:25;102095.02;;;8.12;84.65
50484;BME280;36409;52.168;20.878;2022-11-13T06:39:14;102082.08;;;8.14;84.36
50484;BME280;36409;52.168;20.878;2022-11-13T06:42:02;102084.73;;;8.17;84.22
50484;BME280;36409;52.168;20.878;2022-11-13T06:44:53;102089.98;;;8.18;84.44
50484;BME280;36409;52.168;20.878;2022-11-13T06:47:40;102094.39;;;8.23;84.41
50484;BME280;36409;52.168;20.878;2022-11-13T06:50:28;102091.88;;;8.26;84.25
50484;BME280;36409;52.168;20.878;2022-11-13T06:53:19;102092.79;;;8.28;84.59
50484;BME280;36409;52.168;20.878;2022-11-13T06:56:08;102091.97;;;8.30;84.27
50484;BME280;36409;52.168;20.878;2022-11-13T06:58:56;102098.99;;;8.33;83.85
50484;BME280;36409;52.168;20.878;2022-11-13T07:01:49;102100.72;;;8.34;84.33
50484;BME280;36409;52.168;20.878;2022-11-13T07:04:37;102099.88;;;8.35;84.48
50484;BME280;36409;52.168;20.878;2022-11-13T07:07:25;102092.99;;;8.37;84.07
50484;BME280;36409;52.168;20.878;2022-11-13T07:10:14;102093.89;;;8.38;83.90
50484;BME280;36409;52.168;20.878;2022-11-13T07:13:05;102086.95;;;8.38;83.82
50484;BME280;36409;52.168;20.878;2022-11-13T07:15:59;102087.89;;;8.42;84.62
50484;BME280;36409;52.168;20.878;2022-11-13T07:19:00;102091.39;;;8.42;84.67
50484;BME280;36409;52.168;20.878;2022-11-13T07:21:50;102092.25;;;8.43;83.81
50484;BME280;36409;52.168;20.878;2022-11-13T07:24:37;102096.53;;;8.41;84.59
50484;BME280;36409;52.168;20.878;2022-11-13T07:27:25;102095.67;;;8.40;83.91
50484;BME280;36409;52.168;20.878;2022-11-13T07:30:13;102099.19;;;8.42;83.69
50484;BME280;36409;52.168;20.878;2022-11-13T07:33:05;102095.70;;;8.42;83.93
50484;BME280;36409;52.168;20.878;2022-11-13T07:35:56;102091.33;;;8.41;84.28
50484;BME280;36409;52.168;20.878;2022-11-13T07:38:51;102087.94;;;8.43;84.31
50484;BME280;36409;52.168;20.878;2022-11-13T07:41:54;102086.23;;;8.45;84.42
50484;BME280;36409;52.168;20.878;2022-11-13T07:44:43;102088.88;;;8.47;84.10
50484;BME280;36409;52.168;20.878;2022-11-13T07:47:47;102087.23;;;8.49;83.93
50484;BME280;36409;52.168;20.878;2022-11-13T07:50:38;102088.08;;;8.48;84.04
50484;BME280;36409;52.168;20.878;2022-11-13T07:53:28;102088.08;;;8.48;84.30
50484;BME280;36409;52.168;20.878;2022-11-13T07:56:20;102086.20;;;8.44;83.54
50484;BME280;36409;52.168;20.878;2022-11-13T07:59:10;102083.58;;;8.42;84.29
50484;BME280;36409;52.168;20.878;2022-11-13T08:01:58;102080.98;;;8.42;83.65
50484;BME280;36409;52.168;20.878;2022-11-13T08:04:45;102086.20;;;8.44;84.45
50484;BME280;36409;52.168;20.878;2022-11-13T08:07:36;102090.56;;;8.45;84.32
50484;BME280;36409;52.168;20.878;2022-11-13T08:10:25;102089.70;;;8.44;84.29
50484;BME280;36409;52.168;20.878;2022-11-13T08:13:17;102090.70;;;8.49;84.25
50484;BME280;36409;52.168;20.878;2022-11-13T08:16:08;102096.90;;;8.55;84.50
50484;BME280;36409;52.168;20.878;2022-11-13T08:19:00;102087.42;;;8.58;83.86
50484;BME280;36409;52.168;20.878;2022-11-13T08:21:49;102092.73;;;8.63;84.07
50484;BME280;36409;52.168;20.878;2022-11-13T08:24:37;102095.34;;;8.64;83.80
50484;BME280;36409;52.168;20.878;2022-11-13T08:27:25;102097.94;;;8.63;84.02
50484;BME280;36409;52.168;20.878;2022-11-13T08:30:15;102098.80;;;8.63;83.60
50484;BME280;36409;52.168;20.878;2022-11-13T08:33:08;102097.94;;;8.63;84.00
50484;BME280;36409;52.168;20.878;2022-11-13T08:36:03;102094.48;;;8.64;83.96
50484;BME280;36409;52.168;20.878;2022-11-13T08:38:54;102088.44;;;8.65;83.73
50484;BME280;36409;52.168;20.878;2022-11-13T08:41:42;102086.77;;;8.69;83.90
50484;BME280;36409;52.168;20.878;2022-11-13T08:44:30;102093.78;;;8.73;84.26
50484;BME280;36409;52.168;20.878;2022-11-13T08:47:18;102093.03;;;8.78;84.52
50484;BME280;36409;52.168;20.878;2022-11-13T08:50:08;102094.93;;;8.86;83.91
50484;BME280;36409;52.168;20.878;2022-11-13T08:52:59;102097.70;;;8.93;83.64
50484;BME280;36409;52.168;20.878;2022-11-13T08:55:50;102100.32;;;8.95;84.22
50484;BME280;36409;52.168;20.878;2022-11-13T08:58:37;102101.19;;;8.95;84.15
50484;BME280;36409;52.168;20.878;2022-11-13T09:01:26;102096.89;;;8.98;83.91
50484;BME280;36409;52.168;20.878;2022-11-13T09:04:18;102089.99;;;9.00;83.53
50484;BME280;36409;52.168;20.878;2022-11-13T09:07:07;102093.58;;;9.05;84.07
50484;BME280;36409;52.168;20.878;2022-11-13T09:09:55;102091.98;;;9.11;83.43
50484;BME280;36409;52.168;20.878;2022-11-13T09:12:43;102090.39;;;9.20;83.88
50484;BME280;36409;52.168;20.878;2022-11-13T09:15:31;102087.86;;;9.24;84.36
50484;BME280;36409;52.168;20.878;2022-11-13T09:18:19;102083.52;;;9.25;84.23
50484;BME280;36409;52.168;20.878;2022-11-13T09:21:07;102080.91;;;9.25;83.85
50484;BME280;36409;52.168;20.878;2022-11-13T09:23:57;102076.59;;;9.25;83.54
50484;BME280;36409;52.168;20.878;2022-11-13T09:26:45;102077.45;;;9.26;83.87
50484;BME280;36409;52.168;20.878;2022-11-13T09:29:34;102076.67;;;9.30;83.87
50484;BME280;36409;52.168;20.878;2022-11-13T09:32:24;102078.45;;;9.33;84.35
50484;BME280;36409;52.168;20.878;2022-11-13T09:35:12;102073.29;;;9.34;83.89
50484;BME280;36409;52.168;20.878;2022-11-13T09:38:00;102075.97;;;9.39;84.26
50484;BME280;36409;52.168;20.878;2022-11-13T09:40:56;102082.89;;;9.38;83.21
50484;BME280;36409;52.168;20.878;2022-11-13T09:43:51;102073.30;;;9.36;83.99
50484;BME280;36409;52.168;20.878;2022-11-13T09:46:49;102071.47;;;9.30;83.99
50484;BME280;36409;52.168;20.878;2022-11-13T09:49:42;102067.93;;;9.26;83.48
50484;BME280;36409;52.168;20.878;2022-11-13T09:52:34;102062.67;;;9.25;83.40
50484;BME280;36409;52.168;20.878;2022-11-13T09:55:26;102062.67;;;9.25;84.35
50484;BME280;36409;52.168;20.878;2022-11-13T09:58:21;102068.73;;;9.24;83.16
50484;BME280;36409;52.168;20.878;2022-11-13T10:01:18;102055.77;;;9.27;83.13
50484;BME280;36409;52.168;20.878;2022-11-13T10:04:11;102059.30;;;9.31;84.29
50484;BME280;36409;52.168;20.878;2022-11-13T10:07:12;102052.39;;;9.33;83.12
50484;BME280;36409;52.168;20.878;2022-11-13T10:10:30;102045.50;;;9.36;84.34
50484;BME280;36409;52.168;20.878;2022-11-13T10:13:29;102037.76;;;9.41;84.20
50484;BME280;36409;52.168;20.878;2022-11-13T10:16:26;102038.66;;;9.41;83.61
50484;BME280;36409;52.168;20.878;2022-11-13T10:19:23;102039.56;;;9.43;83.03
50484;BME280;36409;52.168;20.878;2022-11-13T10:22:17;102040.50;;;9.49;83.90
50484;BME280;36409;52.168;20.878;2022-11-13T10:25:21;102042.26;;;9.50;84.24
50484;BME280;36409;52.168;20.878;2022-11-13T10:28:13;102044.02;;;9.51;84.33
50484;BME280;36409;52.168;20.878;2022-11-13T10:31:22;102039.73;;;9.54;83.70
50484;BME280;36409;52.168;20.878;2022-11-13T10:34:12;102037.13;;;9.54;84.07
50484;BME280;36409;52.168;20.878;2022-11-13T10:37:20;102039.73;;;9.54;84.14
50484;BME280;36409;52.168;20.878;2022-11-13T10:40:24;102034.48;;;9.51;83.57
50484;BME280;36409;52.168;20.878;2022-11-13T10:43:17;102037.95;;;9.52;83.55
50484;BME280;36409;52.168;20.878;2022-11-13T10:46:16;102037.13;;;9.54;83.57
50484;BME280;36409;52.168;20.878;2022-11-13T10:49:16;102031.91;;;9.54;83.29
50484;BME280;36409;52.168;20.878;2022-11-13T10:52:17;102031.95;;;9.56;83.46
50484;BME280;36409;52.168;20.878;2022-11-13T10:55:16;102030.22;;;9.58;83.89
50484;BME280;36409;52.168;20.878;2022-11-13T10:58:13;102025.98;;;9.63;83.79
50484;BME280;36409;52.168;20.878;2022-11-13T11:01:20;102027.75;;;9.66;83.45
50484;BME280;36409;52.168;20.878;2022-11-13T11:04:13;102012.03;;;9.61;83.37
50484;BME280;36409;52.168;20.878;2022-11-13T11:07:14;102018.09;;;9.60;83.72
50484;BME280;36409;52.168;20.878;2022-11-13T11:10:20;102024.20;;;9.61;83.39
50484;BME280;36409;52.168;20.878;2022-11-13T11:13:11;102018.04;;;9.57;83.36
50484;BME280;36409;52.168;20.878;2022-11-13T11:16:09;102018.04;;;9.57;83.55
50484;BME280;36409;52.168;20.878;2022-11-13T11:19:00;102022.46;;;9.61;83.64
50484;BME280;36409;52.168;20.878;2022-11-13T11:21:55;102016.45;;;9.65;83.73
50484;BME280;36409;52.168;20.878;2022-11-13T11:24:55;102008.64;;;9.67;83.21
50484;BME280;36409;52.168;20.878;2022-11-13T11:27:51;102018.23;;;9.69;83.28
50484;BME280;36409;52.168;20.878;2022-11-13T11:30:49;102020.05;;;9.73;83.04
50484;BME280;36409;52.168;20.878;2022-11-13T11:33:49;102018.41;;;9.79;83.09
50484;BME280;36409;52.168;20.878;2022-11-13T11:36:42;102022.86;;;9.87;82.86
50484;BME280;36409;52.168;20.878;2022-11-13T11:39:39;102018.66;;;9.96;83.13
50484;BME280;36409;52.168;20.878;2022-11-13T11:42:35;102018.72;;;10.00;82.75
50484;BME280;36409;52.168;20.878;2022-11-13T11:45:27;102010.06;;;10.04;82.79
50484;BME280;36409;52.168;20.878;2022-11-13T11:48:21;102000.59;;;10.10;83.54
50484;BME280;36409;52.168;20.878;2022-11-13T11:51:20;102002.30;;;10.09;83.46
50484;BME280;36409;52.168;20.878;2022-11-13T11:54:19;101994.52;;;10.11;83.21
50484;BME280;36409;52.168;20.878;2022-11-13T11:57:30;101997.98;;;10.11;82.78
50484;BME280;36409;52.168;20.878;2022-11-13T12:00:20;102004.95;;;10.11;82.79
50484;BME280;36409;52.168;20.878;2022-11-13T12:03:36;102000.59;;;10.11;82.85
50484;BME280;36409;52.168;20.878;2022-11-13T12:06:34;102004.91;;;10.09;83.28
50484;BME280;36409;52.168;20.878;2022-11-13T12:09:27;102000.54;;;10.08;82.50
50484;BME280;36409;52.168;20.878;2022-11-13T12:12:21;101987.48;;;10.05;82.81
50484;BME280;36409;52.168;20.878;2022-11-13T12:15:22;101975.29;;;10.04;83.37
50484;BME280;36409;52.168;20.878;2022-11-13T12:18:18;101984.02;;;10.06;82.88
50484;BME280;36409;52.168;20.878;2022-11-13T12:21:21;101987.44;;;10.03;82.26
50484;BME280;36409;52.168;20.878;2022-11-13T12:24:49;101983.07;;;10.02;82.54
50484;BME280;36409;52.168;20.878;2022-11-13T12:27:45;101977.89;;;10.04;83.29
50484;BME280;36409;52.168;20.878;2022-11-13T12:30:40;101981.41;;;10.06;82.89
50484;BME280;36409;52.168;20.878;2022-11-13T12:33:39;101986.64;;;10.08;83.01
50484;BME280;36409;52.168;20.878;2022-11-13T12:36:33;101972.73;;;10.09;83.26
50484;BME280;36409;52.168;20.878;2022-11-13T12:39:32;101977.97;;;10.10;83.21
50484;BME280;36409;52.168;20.878;2022-11-13T12:42:29;101974.49;;;10.10;82.01
50484;BME280;36409;52.168;20.878;2022-11-13T12:45:27;101974.45;;;10.08;82.82
50484;BME280;36409;52.168;20.878;2022-11-13T12:48:30;101974.45;;;10.08;82.83
50484;BME280;36409;52.168;20.878;2022-11-13T12:51:19;101969.23;;;10.08;82.87
50484;BME280;36409;52.168;20.878;2022-11-13T12:54:09;101974.44;;;10.05;83.18
50484;BME280;36409;52.168;20.878;2022-11-13T12:57:21;101972.63;;;10.01;82.67
50484;BME280;36409;52.168;20.878;2022-11-13T13:00:27;101966.51;;;9.99;82.42
50484;BME280;36409;52.168;20.878;2022-11-13T13:03:34;101956.91;;;9.95;82.69
50484;BME280;36409;52.168;20.878;2022-11-13T13:06:39;101963.78;;;9.91;82.56
50484;BME280;36409;52.168;20.878;2022-11-13T13:09:42;101962.92;;;9.91;82.16
50484;BME280;36409;52.168;20.878;2022-11-13T13:12:42;101959.45;;;9.90;83.08
50484;BME280;36409;52.168;20.878;2022-11-13T13:15:36;101964.63;;;9.88;82.73
50484;BME280;36409;52.168;20.878;2022-11-13T13:18:27;101963.77;;;9.88;82.96
50484;BME280;36409;52.168;20.878;2022-11-13T13:21:17;101960.27;;;9.87;82.30
50484;BME280;36409;52.168;20.878;2022-11-13T13:24:31;101949.81;;;9.84;82.42
50484;BME280;36409;52.168;20.878;2022-11-13T13:27:24;101953.23;;;9.82;82.69
50484;BME280;36409;52.168;20.878;2022-11-13T13:30:20;101947.16;;;9.81;82.81
50484;BME280;36409;52.168;20.878;2022-11-13T13:33:20;101952.31;;;9.77;81.98
50484;BME280;36409;52.168;20.878;2022-11-13T13:36:20;101946.19;;;9.74;82.24
50484;BME280;36409;52.168;20.878;2022-11-13T13:39:30;101952.25;;;9.73;82.65
50484;BME280;36409;52.168;20.878;2022-11-13T13:42:35;101951.30;;;9.68;81.84
50484;BME280;36409;52.168;20.878;2022-11-13T13:45:36;101948.67;;;9.67;82.49
50484;BME280;36409;52.168;20.878;2022-11-13T13:48:30;101949.53;;;9.66;82.55
50484;BME280;36409;52.168;20.878;2022-11-13T13:51:26;101941.70;;;9.64;81.79
50484;BME280;36409;52.168;20.878;2022-11-13T13:54:18;101935.59;;;9.64;82.14
50484;BME280;36409;52.168;20.878;2022-11-13T13:57:11;101939.09;;;9.64;81.90
50484;BME280;36409;52.168;20.878;2022-11-13T14:00:02;101933.88;;;9.64;82.89
50484;BME280;36409;52.168;20.878;2022-11-13T14:02:51;101933.88;;;9.64;82.71
50484;BME280;36409;52.168;20.878;2022-11-13T14:05:39;101940.78;;;9.61;81.84
50484;BME280;36409;52.168;20.878;2022-11-13T14:08:27;101932.01;;;9.57;82.34
50484;BME280;36409;52.168;20.878;2022-11-13T14:11:18;101929.38;;;9.54;82.78
50484;BME280;36409;52.168;20.878;2022-11-13T14:14:08;101929.33;;;9.51;82.08
50484;BME280;36409;52.168;20.878;2022-11-13T14:16:57;101932.78;;;9.50;82.19
50484;BME280;36409;52.168;20.878;2022-11-13T14:19:49;101927.57;;;9.50;82.82
50484;BME280;36409;52.168;20.878;2022-11-13T14:22:38;101925.79;;;9.46;82.56
50484;BME280;36409;52.168;20.878;2022-11-13T14:25:27;101921.38;;;9.43;81.74
50484;BME280;36409;52.168;20.878;2022-11-13T14:28:17;101929.14;;;9.38;82.71
50484;BME280;36409;52.168;20.878;2022-11-13T14:31:10;101921.26;;;9.35;82.07
50484;BME280;36409;52.168;20.878;2022-11-13T14:34:10;101923.00;;;9.35;81.91
50484;BME280;36409;52.168;20.878;2022-11-13T14:37:11;101922.14;;;9.34;82.21
50484;BME280;36409;52.168;20.878;2022-11-13T14:40:11;101923.78;;;9.29;81.91
50484;BME280;36409;52.168;20.878;2022-11-13T14:43:05;101925.48;;;9.27;81.79
50484;BME280;36409;52.168;20.878;2022-11-13T14:45:56;101928.08;;;9.25;82.12
50484;BME280;36409;52.168;20.878;2022-11-13T14:48:52;101919.35;;;9.23;81.85
50484;BME280;36409;52.168;20.878;2022-11-13T14:51:52;101927.16;;;9.22;81.80
50484;BME280;36409;52.168;20.878;2022-11-13T14:54:40;101919.30;;;9.20;82.34
50484;BME280;36409;52.168;20.878;2022-11-13T14:57:58;101921.89;;;9.19;82.18
50484;BME280;36409;52.168;20.878;2022-11-13T15:00:49;101909.70;;;9.18;82.60
50484;BME280;36409;52.168;20.878;2022-11-13T15:03:37;101910.57;;;9.18;82.30